Aérodrome :
LOGIN :

S'inscrire | Disclaimer

   EN    FR    IT 

 










Légende :    VFR   VFR Marginal   IFR   IFR Intensif   IFR Très Intensif
Visi : 
Plafond : 
>= 8 km
>= 3000ft
5 à 8 km
1000 à 3000 ft
1500m à 5 km
500 à 1000 ft
800 à 1500m
200 à 500 ft
< 800m
< 200 ft
Symboles :   Orages  Brouillard  Fortes neiges  Fortes précipitations  Vent > 20 kt
SIGMETs :   Divers  Orages  Givrage  Turbulence  Onde Orograph.  Cendres Volcan.






- Altitude de l'aérodrome : 80 ft
- Code IATA : LPL


EGGP - Liverpool John Lennon

DERNIER METAR :
  • 212320Z VRB02KT 9999 FEW031 08/07 Q1023

METARs EXPIRÉS :
  • 212250Z VRB02KT 9999 FEW032 08/07 Q1023
  • 212220Z VRB02KT 9999 FEW032 07/07 Q1023
  • 212150Z 24004KT CAVOK 07/06 Q1023
  • 212120Z 22003KT 9999 FEW029 07/06 Q1023
  • 212050Z VRB01KT CAVOK 08/07 Q1023

TAF TAF EGGP
Valide du 22 à 00h jusqu'au 23 à 00h UTC


212305Z 2200/2224 19003KT 9999 SCT030
PROB30
TEMPO 2200/2206 9000
BECMG 2212/2215 25010KT
BECMG 2215/2218 19004KT
ATIS : +44 151 907 2000 (option 5 or ext 5150)
Météo : +44 871 750 5150



MET'MAP, la Météo Aéronautique d'un coup d'oeil ! - Copyright ORBIFLY Décembre 2007 - Disclaimer

ORBIFLY MET'MAP TEAM :

Programmation & Développement : Alexandra Zaïnal
Conception & Développement : Baudouin d'Aumeries
Co-Programmation & Développement : Marc-Olivier Méhu
Soutien technique & logistique : Manuel Goepfert

Contact : metmap@orbifly.com




SOURCES & CREDITS :

   NOAA